Terminal Aerodrome Forecast
Issued by NWS Atlanta, GA

Home | Current Version | Previous Version | Text Only | Print | Product List | Glossary On
Versions: 1 2 3 4 5 6 7 8 9 10 11 12 13 14 15 16 17 18 19 20 21 22 23 24 25 26 27 28 29 30 31 32 33 34 35 36 37 38 39 40 41
000
FTUS42 KFFC 282139 AAB
TAFATL
TAF AMD
KATL 282139Z 2822/2924 08006KT 5SM SHRA SCT015 BKN060
      TEMPO 2822/2824 VRB15KT 3SM TSRA BKN015CB
     FM290000 14006KT P6SM SCT040 BKN080
     FM290600 VRB03KT P6SM SCT015 BKN045
     FM291400 15007KT P6SM BKN030
     FM291900 17007KT P6SM SCT040 PROB30 2919/2923 3SM TSRA
      BKN025CB=

USA.gov is the U.S. government's official web portal to all federal, state and local government web resources and services.